createdAt,value
2022-09-01T00:00:02.007Z,21.57
2022-09-01T00:02:30.679Z,18.13
2022-09-01T00:04:59.541Z,22.17
2022-09-01T00:07:30.205Z,18.57
2022-09-01T00:10:00.281Z,22.93
2022-09-01T00:12:29.084Z,22.53
2022-09-01T00:14:57.410Z,20.63
2022-09-01T00:17:26.136Z,22.27
2022-09-01T00:19:54.297Z,28.70
2022-09-01T00:22:22.800Z,21.80
2022-09-01T00:24:51.008Z,19.33
2022-09-01T00:27:20.824Z,9.20
2022-09-01T00:29:56.934Z,22.60
2022-09-01T00:32:25.387Z,11.27
2022-09-01T00:34:53.627Z,23.90
2022-09-01T00:37:21.765Z,11.10
2022-09-01T00:39:49.995Z,19.23
2022-09-01T00:42:18.323Z,22.30
2022-09-01T00:44:48.233Z,30.43
2022-09-01T00:47:16.466Z,31.43
2022-09-01T00:49:48.419Z,27.63
2022-09-01T00:52:20.335Z,14.40
2022-09-01T00:54:54.645Z,20.53
2022-09-01T00:57:23.033Z,11.60
2022-09-01T00:59:57.518Z,13.53
2022-09-01T01:02:26.492Z,15.97
2022-09-01T01:04:56.107Z,12.30
2022-09-01T01:07:27.359Z,14.93
2022-09-01T01:09:55.612Z,15.20
2022-09-01T01:12:23.763Z,13.40
2022-09-01T01:14:53.440Z,15.13
2022-09-01T01:17:23.263Z,12.73
2022-09-01T01:20:11.178Z,16.27
2022-09-01T01:23:06.428Z,14.30
2022-09-01T01:25:39.402Z,13.63
2022-09-01T01:28:15.754Z,14.30
2022-09-01T01:30:52.279Z,21.70
2022-09-01T01:33:21.807Z,13.93
2022-09-01T01:35:51.729Z,16.10
2022-09-01T01:38:22.934Z,15.90
2022-09-01T01:40:54.466Z,16.80
2022-09-01T01:43:23.228Z,18.43
2022-09-01T01:45:53.795Z,15.20
2022-09-01T01:48:24.549Z,17.20
2022-09-01T01:50:54.715Z,19.87
2022-09-01T01:53:23.508Z,18.67
2022-09-01T01:55:53.059Z,20.77
2022-09-01T01:58:24.546Z,21.53
2022-09-01T02:00:55.077Z,20.87
2022-09-01T02:03:26.141Z,27.33
2022-09-01T02:05:55.941Z,25.53
2022-09-01T02:08:26.199Z,28.60
2022-09-01T02:11:00.173Z,28.37
2022-09-01T02:13:30.899Z,23.43
2022-09-01T02:16:01.075Z,21.57
2022-09-01T02:18:34.224Z,22.10
2022-09-01T02:21:03.004Z,22.90
2022-09-01T02:23:32.651Z,24.40
2022-09-01T02:26:18.170Z,23.90
2022-09-01T02:28:54.268Z,23.67
2022-09-01T02:31:24.462Z,22.60
2022-09-01T02:33:54.355Z,26.03
2022-09-01T02:36:22.994Z,24.40
2022-09-01T02:38:53.803Z,25.03
2022-09-01T02:41:29.137Z,25.47
2022-09-01T02:43:57.690Z,23.23
2022-09-01T02:46:26.229Z,23.60
2022-09-01T02:48:54.633Z,11.70
2022-09-01T02:51:25.607Z,25.33
2022-09-01T02:53:54.259Z,10.47
2022-09-01T02:56:27.479Z,22.40
2022-09-01T02:58:56.489Z,20.83
2022-09-01T03:01:27.224Z,26.50
2022-09-01T03:03:57.492Z,27.87
2022-09-01T03:06:26.793Z,26.93
2022-09-01T03:08:59.691Z,25.80
2022-09-01T03:11:31.881Z,27.07
2022-09-01T03:14:00.593Z,25.83
2022-09-01T03:16:30.409Z,29.73
2022-09-01T03:18:59.197Z,28.77
2022-09-01T03:21:27.880Z,29.50
2022-09-01T03:23:58.123Z,29.07
2022-09-01T03:26:26.360Z,29.33
2022-09-01T03:28:55.844Z,11.60
2022-09-01T03:31:27.453Z,8.67
2022-09-01T03:33:59.655Z,8.97
2022-09-01T03:36:30.086Z,10.33
2022-09-01T03:38:58.666Z,12.50
2022-09-01T03:41:28.685Z,7.93
2022-09-01T03:43:59.456Z,9.47
2022-09-01T03:46:36.421Z,8.33
2022-09-01T03:49:07.474Z,11.10
2022-09-01T03:51:39.034Z,7.77
2022-09-01T03:54:07.824Z,8.57
2022-09-01T03:56:35.918Z,9.33
2022-09-01T03:59:05.683Z,9.00
2022-09-01T04:01:41.569Z,8.23
2022-09-01T04:04:09.795Z,10.43
2022-09-01T04:06:38.968Z,8.90
2022-09-01T04:09:07.207Z,8.37
2022-09-01T04:11:36.254Z,8.70
2022-09-01T04:14:06.230Z,7.50
2022-09-01T04:16:53.201Z,11.53
2022-09-01T04:19:26.569Z,8.97
2022-09-01T04:21:57.671Z,10.97
2022-09-01T04:24:28.041Z,6.10
2022-09-01T04:26:58.732Z,7.13
2022-09-01T04:29:28.642Z,6.30
2022-09-01T04:32:02.183Z,9.07
2022-09-01T04:34:37.139Z,9.73
2022-09-01T04:37:09.864Z,9.00
2022-09-01T04:39:39.238Z,9.20
2022-09-01T04:42:09.230Z,10.53
2022-09-01T04:44:40.413Z,12.23
2022-09-01T04:47:12.212Z,8.47
2022-09-01T04:49:40.417Z,10.47
2022-09-01T04:52:08.507Z,9.97
2022-09-01T04:54:38.899Z,7.30
2022-09-01T04:57:07.979Z,10.50
2022-09-01T04:59:36.723Z,9.80
2022-09-01T05:02:07.827Z,8.40
2022-09-01T05:04:36.608Z,10.47
2022-09-01T05:07:08.443Z,10.00
2022-09-01T05:09:38.332Z,11.10
2022-09-01T05:12:12.883Z,9.17
2022-09-01T05:14:48.493Z,10.27
2022-09-01T05:17:18.755Z,9.50
2022-09-01T05:19:51.116Z,9.47
2022-09-01T05:22:22.392Z,9.53
2022-09-01T05:24:51.574Z,10.90
2022-09-01T05:27:23.989Z,9.53
2022-09-01T05:29:53.142Z,8.30
2022-09-01T05:32:26.063Z,17.90
2022-09-01T05:34:54.772Z,8.20
2022-09-01T05:37:22.992Z,8.67
2022-09-01T05:39:52.504Z,8.57
2022-09-01T05:42:21.723Z,12.37
2022-09-01T05:44:52.672Z,14.00
2022-09-01T05:47:23.552Z,17.17
2022-09-01T05:49:53.762Z,9.73
2022-09-01T05:52:26.477Z,17.53
2022-09-01T05:54:55.598Z,16.23
2022-09-01T05:57:34.432Z,10.90
2022-09-01T06:00:10.954Z,23.73
2022-09-01T06:02:42.872Z,11.93
2022-09-01T06:05:11.649Z,17.47
2022-09-01T06:07:42.812Z,18.00
2022-09-01T06:10:13.005Z,17.53
2022-09-01T06:12:41.162Z,19.20
2022-09-01T06:15:16.145Z,18.00
2022-09-01T06:17:46.391Z,20.70
2022-09-01T06:20:18.254Z,25.23
2022-09-01T06:22:47.616Z,17.53
2022-09-01T06:25:17.370Z,33.43
2022-09-01T06:27:46.064Z,23.23
2022-09-01T06:30:23.729Z,28.23
2022-09-01T06:32:54.337Z,26.87
2022-09-01T06:35:25.192Z,23.43
2022-09-01T06:37:53.436Z,25.43
2022-09-01T06:40:21.732Z,21.90
2022-09-01T06:42:52.462Z,22.70
2022-09-01T06:45:23.670Z,19.17
2022-09-01T06:47:57.678Z,17.60
2022-09-01T06:53:35.018Z,15.60
2022-09-01T06:56:04.219Z,16.40
2022-09-01T06:58:32.348Z,21.03
2022-09-01T07:01:00.455Z,16.90
2022-09-01T07:03:30.859Z,16.40
2022-09-01T07:06:01.413Z,20.20
2022-09-01T07:08:31.896Z,16.67
2022-09-01T07:16:51.973Z,18.90
2022-09-01T07:19:48.000Z,14.10
2022-09-01T07:22:35.298Z,16.20
2022-09-01T07:25:12.026Z,12.73
2022-09-01T07:27:41.550Z,18.00
2022-09-01T07:30:12.024Z,15.03
2022-09-01T07:32:47.143Z,14.63
2022-09-01T07:35:19.939Z,13.93
2022-09-01T07:38:48.022Z,13.03
2022-09-01T07:43:32.645Z,14.70
2022-09-01T07:49:29.214Z,12.97
2022-09-01T07:51:48.172Z,16.03
2022-09-01T07:54:16.403Z,17.93
2022-09-01T07:56:44.533Z,17.80
2022-09-01T07:59:15.532Z,18.70
2022-09-01T08:01:43.966Z,13.60
2022-09-01T08:04:12.272Z,14.53
2022-09-01T08:06:41.193Z,16.30
2022-09-01T08:09:11.752Z,11.97
2022-09-01T08:12:01.165Z,19.60
2022-09-01T08:14:33.818Z,18.33
2022-09-01T08:17:34.363Z,18.50
2022-09-01T08:19:51.928Z,16.10
2022-09-01T08:22:23.291Z,16.77
2022-09-01T08:24:54.065Z,18.43
2022-09-01T08:27:22.558Z,13.13
2022-09-01T08:29:50.719Z,16.67
2022-09-01T08:32:20.579Z,17.00
2022-09-01T08:34:48.813Z,17.70
2022-09-01T08:37:16.957Z,12.00
2022-09-01T08:39:46.834Z,70.93
2022-09-01T08:42:33.036Z,42.37
2022-09-01T08:45:12.914Z,23.00
2022-09-01T08:48:04.732Z,21.00
2022-09-01T08:50:30.177Z,12.27
2022-09-01T08:53:12.275Z,13.30
2022-09-01T08:55:44.668Z,15.13
2022-09-01T08:58:17.862Z,23.13
2022-09-01T09:00:54.848Z,14.50
2022-09-01T09:03:40.760Z,12.80
2022-09-01T09:06:18.460Z,9.10
2022-09-01T09:08:57.994Z,9.77
2022-09-01T09:11:53.070Z,12.03
2022-09-01T09:14:36.428Z,10.10
2022-09-01T09:17:05.649Z,8.43
2022-09-01T09:19:36.552Z,14.83
2022-09-01T09:22:07.063Z,7.60
2022-09-01T09:24:48.454Z,8.53
2022-09-01T09:27:22.326Z,8.07
2022-09-01T09:29:54.548Z,11.33
2022-09-01T09:32:39.482Z,10.73
2022-09-01T09:35:29.336Z,5.77
2022-09-01T09:37:57.710Z,12.10
2022-09-01T09:40:27.362Z,7.40
2022-09-01T09:43:06.679Z,7.10
2022-09-01T09:45:42.055Z,8.47
2022-09-01T09:48:27.244Z,8.60
2022-09-01T09:50:55.559Z,7.03
2022-09-01T09:53:29.585Z,9.27
2022-09-01T09:56:03.797Z,6.37
2022-09-01T09:58:37.782Z,10.77
2022-09-01T10:01:16.277Z,8.23
2022-09-01T10:03:49.965Z,6.37
2022-09-01T10:06:33.257Z,11.77
2022-09-01T10:09:03.445Z,9.27
2022-09-01T10:11:40.847Z,10.77
2022-09-01T10:14:35.671Z,13.70
2022-09-01T10:17:13.308Z,8.20
2022-09-01T10:19:49.075Z,13.77
2022-09-01T10:22:17.200Z,15.77
2022-09-01T10:24:50.152Z,19.33
2022-09-01T10:27:23.765Z,6.87
2022-09-01T10:30:13.871Z,25.90
2022-09-01T10:32:55.418Z,9.53
2022-09-01T10:35:27.672Z,10.87
2022-09-01T10:37:59.155Z,6.87
2022-09-01T10:40:43.388Z,8.37
2022-09-01T10:43:44.124Z,9.80
2022-09-01T10:46:51.328Z,7.50
2022-09-01T10:49:58.081Z,10.50
2022-09-01T10:53:17.004Z,8.13
2022-09-01T10:55:49.067Z,13.63
2022-09-01T11:02:22.917Z,11.20
2022-09-01T11:05:21.141Z,11.93
2022-09-01T11:08:15.187Z,9.47
2022-09-01T11:10:54.314Z,12.50
2022-09-01T11:13:45.249Z,4.80
2022-09-01T11:16:50.113Z,5.73
2022-09-01T11:19:44.426Z,29.17
2022-09-01T11:22:23.505Z,20.10
2022-09-01T11:25:40.819Z,42.03
2022-09-01T11:28:44.690Z,47.07
2022-09-01T11:31:31.328Z,56.30
2022-09-01T11:34:19.114Z,11.80
2022-09-01T11:36:53.395Z,27.43
2022-09-01T11:39:34.616Z,9.70
2022-09-01T11:42:07.469Z,16.83
2022-09-01T11:44:43.042Z,5.93
2022-09-01T11:47:17.131Z,4.93
2022-09-01T11:49:55.232Z,9.60
2022-09-01T11:52:26.271Z,5.93
2022-09-01T11:54:56.030Z,3.77
2022-09-01T11:57:28.151Z,25.17
2022-09-01T11:59:57.315Z,18.83
2022-09-01T12:02:28.201Z,15.37
2022-09-01T12:04:58.717Z,5.80
2022-09-01T12:07:39.089Z,13.43
2022-09-01T12:10:20.780Z,15.67
2022-09-01T12:12:49.243Z,7.03
2022-09-01T12:15:23.108Z,13.17
2022-09-01T12:17:51.486Z,8.33
2022-09-01T12:20:29.247Z,12.00
2022-09-01T12:22:58.288Z,8.27
2022-09-01T12:25:30.232Z,11.90
2022-09-01T12:27:59.030Z,19.40
2022-09-01T12:30:28.196Z,9.80
2022-09-01T12:35:47.307Z,24.87
2022-09-01T12:38:24.109Z,11.37
2022-09-01T12:40:55.504Z,15.13
2022-09-01T12:43:33.187Z,15.47
2022-09-01T12:46:04.781Z,25.97
2022-09-01T12:48:34.734Z,17.10
2022-09-01T12:51:05.168Z,7.20
2022-09-01T12:53:36.959Z,7.00
2022-09-01T12:56:22.784Z,19.53
2022-09-01T12:59:04.211Z,11.07
2022-09-01T13:01:34.693Z,8.07
2022-09-01T13:04:25.579Z,8.27
2022-09-01T13:06:55.614Z,29.97
2022-09-01T13:09:23.936Z,12.60
2022-09-01T13:12:09.187Z,26.83
2022-09-01T13:14:37.387Z,10.00
2022-09-01T13:17:06.036Z,14.63
2022-09-01T13:19:42.568Z,9.70
2022-09-01T13:22:11.002Z,6.20
2022-09-01T13:24:40.055Z,7.73
2022-09-01T13:27:26.630Z,4.20
2022-09-01T13:29:55.527Z,6.83
2022-09-01T13:32:24.971Z,7.50
2022-09-01T13:34:54.914Z,7.73
2022-09-01T13:37:23.911Z,4.10
2022-09-01T13:39:52.367Z,3.80
2022-09-01T13:42:22.793Z,4.67
2022-09-01T13:44:55.532Z,7.40
2022-09-01T13:47:29.802Z,10.03
2022-09-01T13:50:17.286Z,17.57
2022-09-01T13:52:55.029Z,23.27
2022-09-01T13:55:26.111Z,22.73
2022-09-01T13:57:56.877Z,14.63
2022-09-01T14:00:29.360Z,14.00
2022-09-01T14:03:00.704Z,18.53
2022-09-01T14:05:31.317Z,19.87
2022-09-01T14:07:59.839Z,22.03
2022-09-01T14:10:29.438Z,10.83
2022-09-01T14:12:59.003Z,9.33
2022-09-01T14:15:27.619Z,11.30
2022-09-01T14:17:58.026Z,11.20
2022-09-01T14:20:30.957Z,5.10
2022-09-01T14:23:02.637Z,4.33
2022-09-01T14:25:31.249Z,3.80
2022-09-01T14:28:02.028Z,3.80
2022-09-01T14:30:32.089Z,3.37
2022-09-01T14:33:00.532Z,4.00
2022-09-01T14:35:33.236Z,20.93
2022-09-01T14:38:05.230Z,11.67
2022-09-01T14:40:33.848Z,5.73
2022-09-01T14:43:03.474Z,4.57
2022-09-01T14:45:31.986Z,6.37
2022-09-01T14:48:01.873Z,6.30
2022-09-01T14:50:32.800Z,3.50
2022-09-01T14:53:03.139Z,5.83
2022-09-01T14:55:32.754Z,3.60
2022-09-01T14:58:01.396Z,6.70
2022-09-01T15:00:35.243Z,4.67
2022-09-01T15:03:03.868Z,5.00
2022-09-01T15:05:39.804Z,6.90
2022-09-01T15:08:09.081Z,6.53
2022-09-01T15:10:38.160Z,6.10
2022-09-01T15:13:06.293Z,7.23
2022-09-01T15:15:35.893Z,3.30
2022-09-01T15:18:04.180Z,4.83
2022-09-01T15:20:48.599Z,4.40
2022-09-01T15:23:18.616Z,4.00
2022-09-01T15:25:46.952Z,5.43
2022-09-01T15:28:15.327Z,5.30
2022-09-01T15:30:45.559Z,8.00
2022-09-01T15:33:16.233Z,8.43
2022-09-01T15:35:46.301Z,3.77
2022-09-01T15:38:17.596Z,5.63
2022-09-01T15:40:47.245Z,3.47
2022-09-01T15:43:24.044Z,4.50
2022-09-01T15:45:53.628Z,7.60
2022-09-01T15:48:21.764Z,6.43
2022-09-01T15:50:50.572Z,10.30
2022-09-01T15:53:19.271Z,11.23
2022-09-01T15:55:49.207Z,6.10
2022-09-01T15:58:19.329Z,7.17
2022-09-01T16:00:47.847Z,3.53
2022-09-01T16:03:17.411Z,5.57
2022-09-01T16:05:45.724Z,4.60
2022-09-01T16:08:13.916Z,5.23
2022-09-01T16:10:43.234Z,4.53
2022-09-01T16:13:13.201Z,4.13
2022-09-01T16:15:49.885Z,4.87
2022-09-01T16:18:30.085Z,3.57
2022-09-01T16:21:05.101Z,4.17
2022-09-01T16:23:40.710Z,4.63
2022-09-01T16:26:09.035Z,4.17
2022-09-01T16:28:38.993Z,4.23
2022-09-01T16:31:12.865Z,4.00
2022-09-01T16:33:48.019Z,4.17
2022-09-01T16:36:31.012Z,4.10
2022-09-01T16:39:08.600Z,3.33
2022-09-01T16:41:48.228Z,3.67
2022-09-01T16:44:27.495Z,3.93
2022-09-01T16:47:07.033Z,4.30
2022-09-01T16:49:44.444Z,4.57
2022-09-01T16:52:20.844Z,3.57
2022-09-01T16:55:02.760Z,5.00
2022-09-01T16:57:39.664Z,4.90
2022-09-01T17:00:11.134Z,3.40
2022-09-01T17:02:49.677Z,3.53
2022-09-01T17:05:25.051Z,5.90
2022-09-01T17:07:59.257Z,2.70
2022-09-01T17:10:40.060Z,3.73
2022-09-01T17:13:17.448Z,3.40
2022-09-01T17:15:51.721Z,4.20
2022-09-01T17:18:28.092Z,4.70
2022-09-01T17:21:03.300Z,5.63
2022-09-01T17:23:38.245Z,4.90
2022-09-01T17:26:13.464Z,3.33
2022-09-01T17:28:47.974Z,6.00
2022-09-01T17:31:24.676Z,5.33
2022-09-01T17:34:07.568Z,4.73
2022-09-01T17:36:46.981Z,4.07
2022-09-01T17:39:26.629Z,5.77
2022-09-01T17:41:58.040Z,4.57
2022-09-01T17:44:35.858Z,3.60
2022-09-01T17:47:12.658Z,5.80
2022-09-01T17:49:51.208Z,5.90
2022-09-01T17:52:28.247Z,3.60
2022-09-01T17:55:01.736Z,7.10
2022-09-01T17:57:39.807Z,6.30
2022-09-01T18:00:17.181Z,3.70
2022-09-01T18:03:27.713Z,7.10
2022-09-01T18:06:04.847Z,6.03
2022-09-01T18:08:40.291Z,5.80
2022-09-01T18:11:12.988Z,7.03
2022-09-01T18:13:53.209Z,6.83
2022-09-01T18:16:24.564Z,20.87
2022-09-01T18:18:53.781Z,4.53
2022-09-01T18:21:24.895Z,5.63
2022-09-01T18:23:59.164Z,6.40
2022-09-01T18:26:32.494Z,7.70
2022-09-01T18:29:02.991Z,3.20
2022-09-01T18:31:52.613Z,5.43
2022-09-01T18:34:28.620Z,6.00
2022-09-01T18:37:04.203Z,5.33
2022-09-01T18:39:46.472Z,5.40
2022-09-01T18:42:20.768Z,3.20
2022-09-01T18:44:55.901Z,7.50
2022-09-01T18:47:31.008Z,6.90
2022-09-01T18:50:08.774Z,3.73
2022-09-01T18:52:57.794Z,4.60
2022-09-01T18:55:34.025Z,5.13
2022-09-01T18:58:07.134Z,7.43
2022-09-01T19:00:40.425Z,6.03
2022-09-01T19:03:16.933Z,6.97
2022-09-01T19:06:00.144Z,4.77
2022-09-01T19:08:49.292Z,7.37
2022-09-01T19:11:32.946Z,6.00
2022-09-01T19:14:10.902Z,3.50
2022-09-01T19:16:55.052Z,10.07
2022-09-01T19:19:35.930Z,4.50
2022-09-01T19:22:04.198Z,5.67
2022-09-01T19:24:39.361Z,9.07
2022-09-01T19:27:14.163Z,6.73
2022-09-01T19:29:48.284Z,5.97
2022-09-01T19:32:20.984Z,6.73
2022-09-01T19:34:54.399Z,3.80
2022-09-01T19:37:22.725Z,8.60
2022-09-01T19:39:54.492Z,9.77
2022-09-01T19:42:28.788Z,7.53
2022-09-01T19:45:07.211Z,9.23
2022-09-01T19:47:41.291Z,5.10
2022-09-01T19:50:17.698Z,5.87
2022-09-01T19:52:55.103Z,7.10
2022-09-01T19:55:31.483Z,12.83
2022-09-01T19:58:04.887Z,5.00
2022-09-01T20:00:50.782Z,6.80
2022-09-01T20:03:23.542Z,6.90
2022-09-01T20:05:58.052Z,3.67
2022-09-01T20:08:34.717Z,4.60
2022-09-01T20:11:10.104Z,8.00
2022-09-01T20:14:02.634Z,12.07
2022-09-01T20:16:35.828Z,5.87
2022-09-01T20:19:10.497Z,6.63
2022-09-01T20:21:44.173Z,7.63
2022-09-01T20:24:19.618Z,6.87
2022-09-01T20:26:56.087Z,6.60
2022-09-01T20:29:29.753Z,8.93
2022-09-01T20:32:00.431Z,5.20
2022-09-01T20:34:33.941Z,7.93
2022-09-01T20:37:07.213Z,6.27
2022-09-01T20:39:58.227Z,9.43
2022-09-01T20:42:35.717Z,8.97
2022-09-01T20:45:12.643Z,7.20
2022-09-01T20:47:40.783Z,6.23
2022-09-01T20:50:12.790Z,7.57
2022-09-01T20:52:48.849Z,9.93
2022-09-01T20:55:33.608Z,8.60
2022-09-01T20:58:10.176Z,5.20
2022-09-01T21:00:47.113Z,12.30
2022-09-01T21:03:32.512Z,7.40
2022-09-01T21:06:10.132Z,10.20
2022-09-01T21:08:46.829Z,9.23
2022-09-01T21:11:34.181Z,6.90
2022-09-01T21:14:17.192Z,11.03
2022-09-01T21:16:57.531Z,10.67
2022-09-01T21:19:36.780Z,8.83
2022-09-01T21:22:07.764Z,20.83
2022-09-01T21:24:36.973Z,17.73
2022-09-01T21:27:08.279Z,8.10
2022-09-01T21:29:55.541Z,7.00
2022-09-01T21:32:25.487Z,14.20
2022-09-01T21:34:54.124Z,11.00
2022-09-01T21:37:23.732Z,9.07
2022-09-01T21:39:53.507Z,7.70
2022-09-01T21:42:23.902Z,11.73
2022-09-01T21:44:54.391Z,12.10
2022-09-01T21:47:24.185Z,13.33
2022-09-01T21:49:52.403Z,8.53
2022-09-01T21:52:20.552Z,6.70
2022-09-01T21:54:48.820Z,9.00
2022-09-01T21:57:17.249Z,8.10
2022-09-01T21:59:45.417Z,7.90
2022-09-01T22:02:13.804Z,9.93
2022-09-01T22:04:43.386Z,6.23
2022-09-01T22:07:15.233Z,6.17
2022-09-01T22:09:43.615Z,9.73
2022-09-01T22:12:11.960Z,8.30
2022-09-01T22:14:40.424Z,7.40
2022-09-01T22:17:08.914Z,8.77
2022-09-01T22:19:37.424Z,10.93
2022-09-01T22:22:06.952Z,9.70
2022-09-01T22:24:35.209Z,10.97
2022-09-01T22:27:03.344Z,10.23
2022-09-01T22:29:31.555Z,5.03
2022-09-01T22:32:00.253Z,7.00
2022-09-01T22:34:28.460Z,7.43
2022-09-01T22:36:56.548Z,8.20
2022-09-01T22:39:26.109Z,9.80
2022-09-01T22:41:54.958Z,7.13
2022-09-01T22:44:23.241Z,5.43
2022-09-01T22:46:51.416Z,7.73
2022-09-01T22:49:19.633Z,9.17
2022-09-01T22:51:47.789Z,8.97
2022-09-01T22:54:16.051Z,8.03
2022-09-01T22:56:45.545Z,7.27
2022-09-01T22:59:15.754Z,15.40
2022-09-01T23:01:47.571Z,11.30
2022-09-01T23:04:17.320Z,6.60
2022-09-01T23:06:50.768Z,7.00
2022-09-01T23:09:19.691Z,11.50
2022-09-01T23:11:50.458Z,7.93
2022-09-01T23:14:19.530Z,16.07
2022-09-01T23:16:51.385Z,4.10
2022-09-01T23:19:20.290Z,8.37
2022-09-01T23:21:48.799Z,7.67
2022-09-01T23:24:19.782Z,6.90
2022-09-01T23:26:50.508Z,10.00
2022-09-01T23:29:18.976Z,8.90
2022-09-01T23:31:47.185Z,12.13
2022-09-01T23:34:16.841Z,5.60
2022-09-01T23:36:45.015Z,7.00
2022-09-01T23:39:13.516Z,8.00
2022-09-01T23:41:41.991Z,9.00
2022-09-01T23:44:14.358Z,7.93
2022-09-01T23:46:44.211Z,8.63
2022-09-01T23:49:13.962Z,7.70
2022-09-01T23:51:42.452Z,5.20
2022-09-01T23:54:11.454Z,9.10
2022-09-01T23:56:40.531Z,10.60
2022-09-01T23:59:09.120Z,5.07
